Time;durP1;ratioP1;P1;durP2;ratioP2;P2;SDS_P1;SDS_P2;PMS_P1;PMS_P2;Temp;Humidity;BMP_temperature;BMP_pressure;BME280_temperature;BME280_humidity;BME280_pressure;Samples;Min_cycle;Max_cycle;Signal;HPM_P1;HPM_P2
2023/11/30 00:02:44;;;;;;;33.10;19.70;;;;;;;-1.27;82.30;99536.50;105953;1292;72606;-55
2023/11/30 00:05:30;;;;;;;32.60;17.80;;;;;;;-1.26;81.59;99539.73;105958;1292;58449;-58
2023/11/30 00:08:16;;;;;;;23.80;16.10;;;;;;;-1.25;83.06;99538.90;105949;1292;58984;-58
2023/11/30 00:11:05;;;;;;;23.10;15.00;;;;;;;-1.23;83.61;99539.61;105979;1293;72669;-56
2023/11/30 00:13:51;;;;;;;23.40;13.60;;;;;;;-1.21;83.37;99539.47;105959;1294;68308;-58
2023/11/30 00:16:37;;;;;;;22.80;15.00;;;;;;;-1.19;83.27;99542.54;105970;1292;72533;-58
2023/11/30 00:19:23;;;;;;;28.00;17.20;;;;;;;-1.16;83.29;99544.27;105943;1294;58526;-59
2023/11/30 00:22:09;;;;;;;29.10;16.00;;;;;;;-1.14;82.36;99533.98;105962;1292;59006;-58
2023/11/30 00:24:55;;;;;;;26.00;16.40;;;;;;;-1.12;82.95;99537.56;105934;1292;73639;-59
2023/11/30 00:27:41;;;;;;;21.50;13.80;;;;;;;-1.09;82.86;99534.40;105976;1292;69358;-59
2023/11/30 00:30:27;;;;;;;26.70;15.10;;;;;;;-1.06;82.49;99534.09;105880;1293;72513;-58
2023/11/30 00:33:13;;;;;;;25.20;15.60;;;;;;;-1.04;82.54;99533.94;105968;1293;58430;-57
2023/11/30 00:35:59;;;;;;;26.00;16.10;;;;;;;-1.03;82.73;99535.46;105963;1294;60075;-58
2023/11/30 00:38:45;;;;;;;21.20;13.80;;;;;;;-1.00;83.87;99534.14;105975;1292;74412;-59
2023/11/30 00:41:31;;;;;;;22.70;13.60;;;;;;;-0.98;82.96;99538.56;105942;1292;68492;-59
2023/11/30 00:44:18;;;;;;;23.30;12.80;;;;;;;-0.97;82.70;99538.23;105984;1293;72552;-59
2023/11/30 00:47:04;;;;;;;23.30;14.60;;;;;;;-0.96;83.39;99535.71;105972;1292;58574;-59
2023/11/30 00:49:50;;;;;;;25.20;15.70;;;;;;;-0.95;83.25;99540.46;105974;1293;60203;-59
2023/11/30 00:52:36;;;;;;;22.90;13.50;;;;;;;-0.95;82.74;99537.59;105995;1294;73691;-59
2023/11/30 00:55:22;;;;;;;26.70;15.30;;;;;;;-0.95;82.84;99537.23;105979;1292;68393;-59
2023/11/30 00:58:08;;;;;;;25.20;13.90;;;;;;;-0.95;82.58;99537.92;105993;1293;71162;-58
2023/11/30 01:00:54;;;;;;;24.90;14.30;;;;;;;-0.95;83.05;99537.93;105950;1292;58861;-58
2023/11/30 01:03:40;;;;;;;23.30;14.60;;;;;;;-0.94;82.80;99540.64;105375;1293;59274;-57
2023/11/30 01:06:26;;;;;;;;;;;;;;;-0.93;82.49;99542.00;104572;1293;73082;-57
2023/11/30 01:09:12;;;;;;;22.90;13.80;;;;;;;-0.94;83.32;99537.95;104542;1295;66749;-57
2023/11/30 01:11:58;;;;;;;;;;;;;;;-0.93;83.64;99542.34;104587;1294;74280;-57
2023/11/30 01:14:44;;;;;;;20.30;13.40;;;;;;;-0.93;83.35;99544.20;104561;1294;60341;-58
2023/11/30 01:17:31;;;;;;;17.40;12.50;;;;;;;-0.92;83.97;99545.74;104665;1293;60338;-57
2023/11/30 01:20:17;;;;;;;24.70;14.20;;;;;;;-0.91;83.62;99543.05;104680;1291;71852;-57
2023/11/30 01:23:04;;;;;;;;;;;;;;;-0.92;83.24;99539.98;105018;1293;317357;-58
2023/11/30 01:25:50;;;;;;;19.60;12.50;;;;;;;-0.92;83.75;99543.03;105930;1293;71850;-58
2023/11/30 01:28:36;;;;;;;22.30;13.70;;;;;;;-0.91;83.68;99537.64;105955;1292;58166;-59
2023/11/30 01:31:22;;;;;;;23.40;14.10;;;;;;;-0.90;83.06;99537.48;105926;1293;60582;-59
2023/11/30 01:34:08;;;;;;;24.10;14.80;;;;;;;-0.90;83.73;99534.78;105956;1292;73561;-58
2023/11/30 01:36:54;;;;;;;22.70;12.80;;;;;;;-0.88;84.09;99534.80;105977;1296;67189;-59
2023/11/30 01:39:40;;;;;;;57.50;29.80;;;;;;;-0.87;83.69;99538.70;105940;1293;72295;-59
2023/11/30 01:42:28;;;;;;;18.50;13.10;;;;;;;-0.86;83.67;99542.95;105965;1293;58464;-59
2023/11/30 01:45:14;;;;;;;21.20;13.90;;;;;;;-0.85;83.98;99540.09;105940;1292;59034;-57
2023/11/30 01:48:00;;;;;;;;;;;;;;;-0.84;83.56;99542.64;105976;1294;72289;-58
2023/11/30 01:50:46;;;;;;;19.70;13.30;;;;;;;-0.84;83.97;99542.13;105934;1296;68497;-59
2023/11/30 01:53:38;;;;;;;21.60;14.00;;;;;;;-0.85;83.59;99544.66;105350;1296;72609;-58
2023/11/30 01:56:25;;;;;;;22.60;12.50;;;;;;;-0.85;84.14;99546.35;104497;1294;60369;-58
2023/11/30 01:59:12;;;;;;;21.30;13.70;;;;;;;-0.84;84.26;99545.00;104548;1294;60477;-58
2023/11/30 02:01:58;;;;;;;22.00;12.80;;;;;;;-0.83;83.92;99542.98;105911;1292;71494;-58
2023/11/30 02:04:49;;;;;;;21.00;13.60;;;;;;;-0.83;84.27;99541.98;105986;1292;67138;-58
2023/11/30 02:07:35;;;;;;;22.70;14.00;;;;;;;-0.83;84.15;99539.94;105941;1293;72631;-59
2023/11/30 02:10:23;;;;;;;22.10;13.20;;;;;;;-0.83;84.49;99536.55;105904;1292;58785;-58
2023/11/30 02:13:09;;;;;;;20.60;13.30;;;;;;;-0.82;84.85;99541.48;105940;1293;60109;-58
2023/11/30 02:15:54;;;;;;;21.50;13.70;;;;;;;-0.82;84.22;99538.42;105945;1293;74636;-58
2023/11/30 02:18:40;;;;;;;15.30;11.80;;;;;;;-0.81;83.93;99539.63;105919;1294;67774;-58
2023/11/30 02:21:26;;;;;;;22.00;14.30;;;;;;;-0.80;84.61;99541.17;104817;1293;71186;-58
2023/11/30 02:24:13;;;;;;;19.50;14.20;;;;;;;-0.78;84.43;99541.02;104411;1293;61080;-58
2023/11/30 02:26:59;;;;;;;18.70;13.00;;;;;;;-0.78;84.22;99541.19;104501;1292;60508;-57
2023/11/30 02:29:46;;;;;;;20.50;13.40;;;;;;;-0.78;84.48;99543.55;104537;1294;71497;-58
2023/11/30 02:32:32;;;;;;;;;;;;;;;-0.79;84.29;99543.89;104548;1292;67314;-57
2023/11/30 02:35:18;;;;;;;19.30;13.80;;;;;;;-0.80;85.31;99541.17;104539;1296;73966;-58
2023/11/30 02:38:04;;;;;;;;;;;;;;;-0.80;84.44;99546.06;104502;1296;61927;-58
2023/11/30 02:40:50;;;;;;;20.50;13.00;;;;;;;-0.81;84.96;99536.74;104537;1293;60413;-58
2023/11/30 02:43:37;;;;;;;;;;;;;;;-0.82;85.35;99544.52;104559;1294;73470;-56
2023/11/30 02:46:23;;;;;;;18.40;13.20;;;;;;;-0.83;85.73;99545.18;104533;1293;69084;-55
2023/11/30 02:49:10;;;;;;;24.00;13.90;;;;;;;-0.85;85.97;99551.94;104505;1293;72621;-58
2023/11/30 02:51:56;;;;;;;22.60;14.50;;;;;;;-0.87;85.46;99549.02;104489;1293;60422;-57
2023/11/30 02:54:43;;;;;;;22.10;14.70;;;;;;;-0.91;86.45;99551.34;104448;1292;60751;-57
2023/11/30 02:57:29;;;;;;;;;;;;;;;-0.94;86.71;99549.27;104478;1294;72310;-57
2023/11/30 03:00:16;;;;;;;22.40;14.00;;;;;;;-0.97;86.66;99547.04;104563;1293;69659;-57
2023/11/30 03:03:02;;;;;;;19.30;12.70;;;;;;;-0.99;85.80;99546.16;105877;1292;72415;-58
2023/11/30 03:05:48;;;;;;;22.40;13.60;;;;;;;-1.00;86.65;99546.31;105927;1292;59298;-58
2023/11/30 03:08:34;;;;;;;14.70;11.40;;;;;;;-1.01;87.23;99547.48;105918;1292;58775;-59
2023/11/30 03:11:20;;;;;;;19.40;12.70;;;;;;;-1.03;86.42;99547.47;105943;1292;71349;-59
2023/11/30 03:14:06;;;;;;;20.70;13.60;;;;;;;-1.03;86.52;99550.67;105945;1292;68636;-57
2023/11/30 03:16:52;;;;;;;16.80;12.80;;;;;;;-1.03;85.52;99545.44;105953;1293;71212;-58
2023/11/30 03:19:38;;;;;;;16.80;11.60;;;;;;;-1.04;87.22;99545.95;105917;1293;58459;-59
2023/11/30 03:22:24;;;;;;;199.50;120.70;;;;;;;-1.05;88.19;99551.20;105979;1293;58973;-58
2023/11/30 03:25:10;;;;;;;13.90;11.30;;;;;;;-1.05;88.01;99543.75;105921;1293;73780;-57
2023/11/30 03:27:56;;;;;;;14.20;11.20;;;;;;;-1.07;89.47;99541.02;105873;1292;67433;-58
2023/11/30 03:30:42;;;;;;;17.90;14.50;;;;;;;-1.08;88.16;99544.39;105915;1293;71063;-58
2023/11/30 03:33:28;;;;;;;15.30;10.30;;;;;;;-1.07;88.67;99550.98;105927;1293;59171;-57
2023/11/30 03:36:14;;;;;;;14.60;11.40;;;;;;;-1.08;88.28;99548.61;105938;1294;59078;-59
2023/11/30 03:39:00;;;;;;;14.20;9.30;;;;;;;-1.07;88.86;99550.98;105926;1293;72700;-58
2023/11/30 03:41:46;;;;;;;15.20;11.30;;;;;;;-1.08;90.59;99555.04;105923;1292;68395;-59
2023/11/30 03:44:32;;;;;;;15.40;10.10;;;;;;;-1.09;89.53;99552.83;105929;1292;71524;-58
2023/11/30 03:47:18;;;;;;;14.70;10.90;;;;;;;-1.08;89.98;99555.89;105939;1292;58943;-57
2023/11/30 03:50:04;;;;;;;16.80;10.10;;;;;;;-1.09;89.98;99559.25;105941;1293;58510;-58
2023/11/30 03:52:50;;;;;;;14.20;10.40;;;;;;;-1.09;90.30;99560.61;105944;1292;71511;-58
2023/11/30 03:55:36;;;;;;;13.50;10.50;;;;;;;-1.11;89.30;99562.94;105871;1292;67327;-57
2023/11/30 03:58:22;;;;;;;12.50;10.30;;;;;;;-1.13;89.12;99565.63;105938;1293;71401;-59
2023/11/30 04:01:08;;;;;;;14.00;11.10;;;;;;;-1.15;88.10;99563.40;105927;1293;59636;-59
2023/11/30 04:03:54;;;;;;;13.00;9.50;;;;;;;-1.16;88.19;99567.95;105901;1293;59690;-58
2023/11/30 04:06:40;;;;;;;12.00;10.20;;;;;;;-1.16;88.16;99568.12;105945;1293;72285;-59
2023/11/30 04:09:26;;;;;;;13.60;10.20;;;;;;;-1.16;87.39;99571.32;105932;1292;69003;-59
2023/11/30 04:12:12;;;;;;;10.40;8.30;;;;;;;-1.17;87.96;99571.64;105915;1293;72531;-58
2023/11/30 04:14:58;;;;;;;13.00;9.80;;;;;;;-1.19;87.67;99570.94;105927;1292;58224;-58
2023/11/30 04:17:44;;;;;;;11.00;8.70;;;;;;;-1.20;87.11;99574.31;105941;1293;59097;-57
2023/11/30 04:20:30;;;;;;;11.00;9.50;;;;;;;-1.20;87.51;99572.79;105918;1293;73589;-59
2023/11/30 04:23:16;;;;;;;10.20;9.10;;;;;;;-1.19;87.27;99568.23;105360;1292;67423;-57
2023/11/30 04:26:03;;;;;;;11.60;9.30;;;;;;;-1.18;87.29;99570.28;104530;1294;71152;-56
2023/11/30 04:28:49;;;;;;;10.80;9.20;;;;;;;-1.16;87.47;99571.99;104535;1293;60664;-58
2023/11/30 04:31:35;;;;;;;11.90;9.60;;;;;;;-1.16;87.61;99570.31;101124;1291;5003752;-58
2023/11/30 04:34:21;;;;;;;10.60;9.10;;;;;;;-1.16;87.29;99572.00;105894;1294;72421;-57
2023/11/30 04:37:07;;;;;;;12.40;9.50;;;;;;;-1.15;87.44;99576.07;105943;1293;66453;-58
2023/11/30 04:39:53;;;;;;;11.20;8.90;;;;;;;-1.15;87.05;99573.72;105920;1292;71291;-58
2023/11/30 04:42:39;;;;;;;10.60;9.10;;;;;;;-1.14;86.94;99577.60;105937;1293;58195;-58
2023/11/30 04:45:25;;;;;;;10.20;8.20;;;;;;;-1.15;87.33;99582.50;105960;1294;59128;-58
2023/11/30 04:48:13;;;;;;;10.30;8.00;;;;;;;-1.14;87.13;99586.58;105929;1294;71542;-59
2023/11/30 04:50:59;;;;;;;10.30;8.90;;;;;;;-1.12;86.79;99585.92;105955;1293;68575;-58
2023/11/30 04:53:44;;;;;;;9.10;7.00;;;;;;;-1.11;86.55;99584.23;105921;1293;70856;-58
2023/11/30 04:56:30;;;;;;;8.20;7.10;;;;;;;-1.10;86.31;99591.36;105144;1292;60414;-58
2023/11/30 04:59:17;;;;;;;;;;;;;;;-1.09;85.92;99589.35;104584;1293;63025;-56
2023/11/30 05:02:03;;;;;;;8.10;6.20;;;;;;;-1.09;85.92;99595.11;104541;1293;72320;-58
2023/11/30 05:04:50;;;;;;;7.10;6.30;;;;;;;-1.11;85.80;99599.30;104523;1293;70039;-57
2023/11/30 05:07:36;;;;;;;6.40;5.80;;;;;;;-1.12;85.65;99598.60;104545;1292;71405;-57
2023/11/30 05:10:22;;;;;;;;;;;;;;;-1.12;85.50;99603.85;104561;1294;60680;-56
2023/11/30 05:13:08;;;;;;;7.20;6.10;;;;;;;-1.14;85.44;99606.70;104524;1293;60714;-56
2023/11/30 05:15:54;;;;;;;;;;;;;;;-1.14;85.36;99600.77;104545;1292;72521;-56
2023/11/30 05:18:40;;;;;;;6.00;5.40;;;;;;;-1.15;85.17;99605.17;104561;1293;67307;-58
2023/11/30 05:21:27;;;;;;;;;;;;;;;-1.15;85.12;99604.81;104476;1293;75395;-56
2023/11/30 05:24:13;;;;;;;6.60;5.90;;;;;;;-1.16;85.15;99607.50;104514;1294;61312;-56
2023/11/30 05:26:59;;;;;;;6.50;5.90;;;;;;;-1.18;85.12;99609.34;104535;1292;60367;-57
2023/11/30 05:29:45;;;;;;;;;;;;;;;-1.18;84.87;99611.70;104554;1293;72479;-57
2023/11/30 05:32:32;;;;;;;6.90;6.00;;;;;;;-1.18;84.90;99615.41;104513;1293;70030;-57
2023/11/30 05:35:18;;;;;;;;;;;;;;;-1.19;84.86;99614.40;104572;1292;71299;-57
2023/11/30 05:38:04;;;;;;;5.60;5.00;;;;;;;-1.19;84.82;99614.05;104506;1294;61231;-57
2023/11/30 05:40:50;;;;;;;;;;;;;;;-1.20;84.86;99613.54;104563;1293;62700;-57
2023/11/30 05:43:36;;;;;;;6.10;5.40;;;;;;;-1.20;84.73;99619.45;104535;1293;73107;-54
2023/11/30 05:46:23;;;;;;;;;;;;;;;-1.21;84.77;99620.96;104545;1292;69303;-53
2023/11/30 05:49:09;;;;;;;6.30;5.70;;;;;;;-1.22;84.74;99626.52;104588;1291;72062;-55
2023/11/30 05:51:55;;;;;;;;;;;;;;;-1.23;84.72;99625.66;104593;1292;61165;-55
2023/11/30 05:54:41;;;;;;;6.90;6.10;;;;;;;-1.25;84.72;99627.84;104503;1294;61263;-55
2023/11/30 05:57:27;;;;;;;7.10;6.40;;;;;;;-1.26;84.72;99630.86;104474;1294;73421;-56
2023/11/30 06:00:15;;;;;;;;;;;;;;;-1.27;84.71;99633.70;104499;1292;70018;-55
2023/11/30 06:03:01;;;;;;;7.10;6.40;;;;;;;-1.29;84.60;99632.67;105938;1294;71393;-57
2023/11/30 06:05:47;;;;;;;6.80;5.30;;;;;;;-1.29;84.57;99635.71;105883;1292;59277;-59
2023/11/30 06:08:33;;;;;;;;;;;;;;;-1.29;84.49;99639.25;105973;1293;59462;-58
2023/11/30 06:11:19;;;;;;;6.70;5.60;;;;;;;-1.30;84.49;99642.63;105889;1292;72950;-58
2023/11/30 06:14:06;;;;;;;6.50;5.80;;;;;;;-1.32;84.42;99645.80;105895;1292;67332;-58
2023/11/30 06:16:51;;;;;;;8.40;7.50;;;;;;;-1.34;84.22;99654.40;105916;1293;71400;-57
2023/11/30 06:19:38;;;;;;;7.10;6.00;;;;;;;-1.35;83.99;99664.19;105895;1293;59073;-58
2023/11/30 06:22:24;;;;;;;8.60;7.20;;;;;;;-1.37;83.82;99667.88;105891;1292;60259;-58
2023/11/30 06:25:10;;;;;;;8.30;7.30;;;;;;;-1.39;83.69;99672.59;105938;1293;75543;-58
2023/11/30 06:27:56;;;;;;;10.60;7.30;;;;;;;-1.40;83.50;99677.63;105919;1293;67494;-58
2023/11/30 06:30:44;;;;;;;9.20;6.40;;;;;;;-1.42;83.73;99682.49;105932;1293;71630;-59
2023/11/30 06:33:30;;;;;;;6.40;5.50;;;;;;;-1.45;83.36;99690.39;105893;1293;58792;-58
2023/11/30 06:36:16;;;;;;;8.50;6.70;;;;;;;-1.49;83.13;99690.65;105922;1293;60256;-58
2023/11/30 06:39:03;;;;;;;6.00;5.40;;;;;;;-1.51;83.43;99703.79;105925;1292;74019;-59
2023/11/30 06:41:49;;;;;;;7.60;5.10;;;;;;;-1.56;82.88;99704.39;105926;1294;68691;-59
2023/11/30 06:44:35;;;;;;;7.10;5.70;;;;;;;-1.61;83.01;99710.24;105946;1293;71584;-59
2023/11/30 06:47:21;;;;;;;7.50;6.20;;;;;;;-1.66;82.18;99711.66;105934;1292;59496;-57
2023/11/30 06:50:07;;;;;;;7.50;6.00;;;;;;;-1.70;82.31;99713.45;105964;1292;58971;-58
2023/11/30 06:52:53;;;;;;;7.30;5.50;;;;;;;-1.73;82.63;99713.89;105290;1294;73387;-58
2023/11/30 06:55:39;;;;;;;;;;;;;;;-1.76;82.73;99713.85;104539;1296;67199;-58
2023/11/30 06:58:26;;;;;;;7.00;6.10;;;;;;;-1.83;81.68;99714.05;104530;1293;71591;-58
2023/11/30 07:01:12;;;;;;;;;;;;;;;-1.84;82.53;99716.55;104541;1293;61262;-58
2023/11/30 07:03:58;;;;;;;6.10;5.20;;;;;;;-1.86;82.53;99723.77;104518;1296;61237;-57
2023/11/30 07:06:44;;;;;;;6.60;5.60;;;;;;;-1.88;82.72;99724.75;104450;1292;73454;-58
2023/11/30 07:09:30;;;;;;;6.10;5.50;;;;;;;-1.90;82.67;99725.23;104559;1296;67218;-57
2023/11/30 07:12:17;;;;;;;;;;;;;;;-1.90;82.58;99722.85;104573;1294;73637;-57
2023/11/30 07:15:04;;;;;;;10.00;6.70;;;;;;;-1.91;82.66;99726.37;104450;1296;61883;-58
2023/11/30 07:17:49;;;;;;;7.60;6.10;;;;;;;-1.91;82.61;99734.83;105175;1294;58856;-57
2023/11/30 07:20:36;;;;;;;;;;;;;;;-1.92;82.85;99736.98;104495;1292;76036;-58
2023/11/30 07:23:23;;;;;;;8.90;5.50;;;;;;;-1.92;82.87;99741.39;104542;1294;68105;-57
2023/11/30 07:26:13;;;;;;;8.70;5.90;;;;;;;-1.93;82.53;99742.05;104526;1292;71194;-57
2023/11/30 07:28:59;;;;;;;8.40;6.10;;;;;;;-1.94;82.62;99742.37;104187;1294;578740;-58
2023/11/30 07:31:46;;;;;;;10.10;7.40;;;;;;;-1.94;82.61;99745.05;104568;1294;61182;-57
2023/11/30 07:34:35;;;;;;;8.60;6.80;;;;;;;-1.95;82.85;99746.56;104580;1294;75799;-57
2023/11/30 07:37:22;;;;;;;8.00;6.90;;;;;;;-1.97;82.83;99750.75;104560;1294;67277;-56
2023/11/30 07:40:09;;;;;;;10.10;6.50;;;;;;;-1.99;82.89;99751.04;105543;1293;71193;-57
2023/11/30 07:42:56;;;;;;;9.80;6.80;;;;;;;-2.01;82.79;99758.61;104692;1294;61233;-57
2023/11/30 07:45:42;;;;;;;8.30;6.60;;;;;;;-2.00;83.03;99765.71;104536;1292;61302;-57
2023/11/30 07:48:29;;;;;;;11.10;8.00;;;;;;;-2.01;83.06;99765.54;104541;1292;73093;-58
2023/11/30 07:51:15;;;;;;;9.40;7.30;;;;;;;-2.01;83.02;99765.35;104514;1293;68248;-57
2023/11/30 07:54:02;;;;;;;8.90;7.70;;;;;;;-2.01;83.07;99763.67;104453;1296;74026;-58
2023/11/30 07:56:48;;;;;;;10.60;8.00;;;;;;;-2.02;83.04;99770.23;104522;1294;62104;-56
2023/11/30 07:59:34;;;;;;;10.20;7.80;;;;;;;-2.04;83.09;99768.52;104487;1294;61206;-57
2023/11/30 08:02:21;;;;;;;17.60;15.70;;;;;;;-2.04;83.16;99766.64;104502;1293;73355;-57
2023/11/30 08:05:07;;;;;;;16.30;9.20;;;;;;;-2.07;82.63;99763.56;104561;1292;67606;-57
2023/11/30 08:07:54;;;;;;;12.80;7.90;;;;;;;-2.08;82.98;99767.60;104547;1292;73082;-55
2023/11/30 08:10:41;;;;;;;7.60;5.60;;;;;;;-2.06;82.48;99772.19;104559;1296;61307;-57
2023/11/30 08:13:27;;;;;;;;;;;;;;;-2.05;82.69;99775.07;104566;1292;61131;-55
2023/11/30 08:16:13;;;;;;;6.30;4.40;;;;;;;-2.05;82.29;99772.88;104596;1292;73371;-56
2023/11/30 08:18:59;;;;;;;26.10;12.60;;;;;;;-2.02;82.74;99775.48;104520;1292;67313;-56
2023/11/30 08:21:47;;;;;;;7.20;5.30;;;;;;;-1.99;82.10;99778.73;104524;1296;71472;-58
2023/11/30 08:24:33;;;;;;;4.60;3.90;;;;;;;-1.96;82.38;99781.66;104567;1292;61277;-57
2023/11/30 08:27:22;;;;;;;;;;;;;;;-1.95;82.24;99781.35;104517;1293;61208;-58
2023/11/30 08:30:10;;;;;;;3.40;2.60;;;;;;;-1.97;81.92;99781.98;104493;1292;73370;-58
2023/11/30 08:32:56;;;;;;;3.40;3.10;;;;;;;-2.00;82.10;99786.83;105210;1295;68625;-56
2023/11/30 08:35:42;;;;;;;4.20;2.90;;;;;;;-2.01;82.08;99786.48;104527;1294;71312;-58
2023/11/30 08:38:29;;;;;;;4.50;3.20;;;;;;;-1.97;82.38;99789.76;104471;1294;61182;-55
2023/11/30 08:41:15;;;;;;;4.10;3.70;;;;;;;-1.97;82.27;99788.75;104569;1294;61279;-58
2023/11/30 08:44:03;;;;;;;3.10;2.50;;;;;;;-1.97;82.53;99786.04;104574;1292;74221;-57
2023/11/30 08:46:50;;;;;;;3.40;2.90;;;;;;;-1.94;82.36;99787.11;104570;1292;67179;-56
2023/11/30 08:49:36;;;;;;;3.30;3.00;;;;;;;-1.99;81.67;99793.11;104584;1292;75439;-58
2023/11/30 08:52:23;;;;;;;3.10;2.80;;;;;;;-2.02;82.01;99791.34;104499;1293;61300;-56
2023/11/30 08:55:09;;;;;;;3.90;3.50;;;;;;;-2.01;82.27;99793.73;104473;1293;61790;-58
2023/11/30 08:57:55;;;;;;;3.30;3.00;;;;;;;-2.00;82.42;99790.20;104517;1293;73154;-58
2023/11/30 09:00:42;;;;;;;;;;;;;;;-1.98;82.36;99789.55;104472;1293;66679;-58
2023/11/30 09:03:28;;;;;;;4.70;4.00;;;;;;;-2.02;82.15;99794.89;104488;1294;71933;-56
2023/11/30 09:06:15;;;;;;;4.50;3.90;;;;;;;-2.05;82.01;99791.45;104552;1294;61184;-56
2023/11/30 09:09:01;;;;;;;3.90;3.30;;;;;;;-2.07;81.88;99798.33;104525;1294;63109;-58
2023/11/30 09:11:47;;;;;;;4.00;3.40;;;;;;;-2.07;82.10;99798.84;104480;1292;73828;-58
2023/11/30 09:14:34;;;;;;;4.90;4.40;;;;;;;-2.06;81.99;99795.13;104549;1293;67616;-58
2023/11/30 09:17:20;;;;;;;4.20;3.70;;;;;;;-2.05;82.04;99793.98;104542;1293;71237;-56
2023/11/30 09:20:08;;;;;;;4.80;4.30;;;;;;;-2.02;82.19;99794.56;104523;1294;61237;-57
2023/11/30 09:22:54;;;;;;;6.80;4.50;;;;;;;-1.96;82.00;99794.50;104827;1292;60480;-57
2023/11/30 09:25:40;;;;;;;;;;;;;;;-1.88;82.44;99793.33;104502;1294;76488;-57
2023/11/30 09:28:26;;;;;;;4.80;4.30;;;;;;;-1.75;82.40;99793.26;104553;1294;74255;-56
2023/11/30 09:31:12;;;;;;;;;;;;;;;-1.69;82.38;99796.09;104525;1292;71155;-58
2023/11/30 09:34:00;;;;;;;5.00;4.50;;;;;;;-1.66;81.89;99794.45;104523;1294;61087;-57
2023/11/30 09:36:46;;;;;;;4.30;3.90;;;;;;;-1.61;81.77;99794.73;104535;1292;61211;-56
2023/11/30 09:39:33;;;;;;;6.70;5.50;;;;;;;-1.54;82.00;99787.05;104538;1292;76019;-57
2023/11/30 09:42:19;;;;;;;;;;;;;;;-1.51;81.69;99789.48;104534;1293;66174;-57
2023/11/30 09:45:07;;;;;;;6.30;5.40;;;;;;;-1.52;81.67;99786.08;104561;1293;72017;-56
2023/11/30 09:47:53;;;;;;;10.90;7.30;;;;;;;-1.43;82.14;99788.96;105901;1293;59059;-57
2023/11/30 09:50:39;;;;;;;10.20;7.30;;;;;;;-1.39;81.66;99792.08;105957;1293;60136;-58
2023/11/30 09:53:26;;;;;;;9.60;7.70;;;;;;;-1.37;81.49;99786.89;105945;1293;74934;-58
2023/11/30 09:56:11;;;;;;;;;;;;;;;-1.35;81.83;99783.36;105958;1293;67428;-57
2023/11/30 09:58:57;;;;;;;10.40;7.20;;;;;;;-1.32;81.81;99778.34;105958;1293;72328;-57
2023/11/30 10:01:43;;;;;;;9.00;7.10;;;;;;;-1.26;82.23;99774.22;105961;1292;59481;-58
2023/11/30 10:04:29;;;;;;;19.40;9.80;;;;;;;-1.16;82.00;99774.92;105970;1292;59928;-58
2023/11/30 10:07:15;;;;;;;12.90;9.30;;;;;;;-1.15;81.94;99774.26;105997;1293;73483;-58
2023/11/30 10:10:03;;;;;;;23.40;11.60;;;;;;;-1.12;82.13;99774.14;105914;1294;66232;-57
2023/11/30 10:12:49;;;;;;;24.60;12.50;;;;;;;-1.07;82.05;99770.16;105958;1292;71454;-56
2023/11/30 10:15:35;;;;;;;20.90;11.30;;;;;;;-0.95;82.21;99765.60;105897;1292;59233;-57
2023/11/30 10:18:21;;;;;;;17.60;9.80;;;;;;;-0.79;81.54;99763.50;105929;1293;60612;-58
2023/11/30 10:21:07;;;;;;;;;;;;;;;-0.78;80.52;99764.03;105982;1292;74438;-57
2023/11/30 10:23:53;;;;;;;13.80;8.20;;;;;;;-0.83;80.72;99758.53;105916;1292;67484;-58
2023/11/30 10:26:43;;;;;;;14.00;8.50;;;;;;;-0.72;81.80;99753.11;105873;1294;72378;-57
2023/11/30 10:29:30;;;;;;;11.20;8.50;;;;;;;-0.60;82.06;99752.45;105895;1293;60429;-58
2023/11/30 10:32:17;;;;;;;11.90;9.40;;;;;;;-0.50;80.56;99750.88;105993;1292;59976;-58
2023/11/30 10:35:05;;;;;;;10.20;8.50;;;;;;;-0.46;80.95;99747.73;105946;1292;74363;-57
2023/11/30 10:37:52;;;;;;;11.40;8.70;;;;;;;-0.41;81.48;99748.66;105903;1293;68465;-57
2023/11/30 10:40:39;;;;;;;11.40;9.00;;;;;;;-0.39;80.86;99743.26;105943;1293;71349;-56
2023/11/30 10:43:25;;;;;;;10.90;8.20;;;;;;;-0.43;80.32;99744.20;105958;1293;58354;-55
2023/11/30 10:46:13;;;;;;;;;;;;;;;-0.46;81.23;99741.30;105970;1293;59004;-57
2023/11/30 10:49:00;;;;;;;13.20;8.20;;;;;;;-0.47;79.80;99743.82;105955;1292;74503;-57
2023/11/30 10:51:48;;;;;;;10.80;8.50;;;;;;;-0.75;78.52;99742.08;105956;1292;67486;-56
2023/11/30 10:54:38;;;;;;;10.70;7.80;;;;;;;-0.77;80.36;99742.89;105923;1292;72088;-57
2023/11/30 10:57:25;;;;;;;12.80;8.90;;;;;;;-0.73;79.07;99744.64;105942;1292;59548;-56
2023/11/30 11:00:13;;;;;;;11.10;7.50;;;;;;;-0.74;79.22;99739.73;105980;1294;59151;-56
2023/11/30 11:03:05;;;;;;;8.90;7.60;;;;;;;-0.68;79.83;99741.85;105965;1293;73183;-56
2023/11/30 11:05:54;;;;;;;7.90;7.10;;;;;;;-0.58;80.44;99740.98;105922;1293;67483;-56
2023/11/30 11:08:56;;;;;;;11.80;8.20;;;;;;;-0.55;78.90;99742.54;105940;1293;71287;-57
2023/11/30 11:11:47;;;;;;;12.30;8.50;;;;;;;-0.49;78.70;99743.11;105950;1293;59104;-56
2023/11/30 11:14:33;;;;;;;8.80;7.40;;;;;;;-0.49;78.93;99741.92;105933;1292;59731;-56
2023/11/30 11:17:21;;;;;;;10.90;7.90;;;;;;;-0.41;79.74;99740.17;105961;1292;73883;-57
2023/11/30 11:20:07;;;;;;;10.70;8.40;;;;;;;-0.35;80.18;99737.89;105953;1293;68342;-57
2023/11/30 11:23:02;;;;;;;9.70;7.80;;;;;;;-0.35;78.55;99736.87;104960;1294;71393;-56
2023/11/30 11:25:48;;;;;;;8.80;7.30;;;;;;;-0.28;80.42;99741.71;104540;1292;62026;-55
2023/11/30 11:28:35;;;;;;;;;;;;;;;-0.11;79.72;99743.80;104465;1293;61183;-56
2023/11/30 11:31:21;;;;;;;8.80;7.60;;;;;;;-0.09;78.16;99744.16;104558;1292;77482;-54
2023/11/30 11:34:09;;;;;;;7.60;6.90;;;;;;;0.17;78.85;99736.84;104536;1293;67304;-56
2023/11/30 11:36:55;;;;;;;9.40;8.00;;;;;;;0.30;79.16;99733.94;104475;1292;71219;-55
2023/11/30 11:39:41;;;;;;;7.20;6.50;;;;;;;0.40;77.93;99737.27;104580;1293;61214;-54
2023/11/30 11:42:28;;;;;;;10.10;7.60;;;;;;;0.25;77.80;99736.27;104558;1294;61155;-56
2023/11/30 11:45:14;;;;;;;7.80;6.90;;;;;;;0.23;78.53;99734.88;104478;1294;72203;-56
2023/11/30 11:48:01;;;;;;;;;;;;;;;0.24;77.81;99731.50;104454;1294;67234;-55
2023/11/30 11:50:56;;;;;;;7.90;6.10;;;;;;;0.06;76.32;99736.03;104526;1292;75445;-56
2023/11/30 11:53:43;;;;;;;6.50;5.90;;;;;;;0.08;78.63;99734.19;104504;1291;61273;-56
2023/11/30 11:56:29;;;;;;;6.00;5.40;;;;;;;0.20;79.57;99730.95;104454;1296;59277;-56
2023/11/30 11:59:22;;;;;;;5.80;5.30;;;;;;;0.41;79.63;99736.77;104575;1293;75325;-56
2023/11/30 12:02:19;;;;;;;5.90;5.30;;;;;;;0.42;78.01;99735.42;104403;1294;67212;-56
2023/11/30 12:05:10;;;;;;;5.70;5.10;;;;;;;0.29;78.81;99734.44;104400;1296;71550;-55
2023/11/30 12:07:59;;;;;;;5.40;4.70;;;;;;;0.17;79.63;99735.48;104568;1293;61119;-55
2023/11/30 12:10:48;;;;;;;5.80;5.20;;;;;;;-0.05;79.50;99737.95;104495;1294;61246;-55
2023/11/30 12:13:37;;;;;;;6.70;6.00;;;;;;;-0.16;77.85;99739.33;104358;1292;75097;-56
2023/11/30 12:16:23;;;;;;;8.20;7.20;;;;;;;-0.16;78.87;99742.22;104491;1294;68081;-55
2023/11/30 12:19:10;;;;;;;8.10;7.30;;;;;;;0.01;79.55;99739.70;104527;1293;71302;-56
2023/11/30 12:21:56;;;;;;;8.10;7.10;;;;;;;0.50;80.44;99734.98;104445;1293;61267;-52
2023/11/30 12:24:42;;;;;;;7.30;6.60;;;;;;;1.48;78.89;99735.42;104507;1292;61543;-54
2023/11/30 12:27:29;;;;;;;7.90;7.10;;;;;;;2.73;80.13;99730.41;104485;1292;73203;-56
2023/11/30 12:30:15;;;;;;;;;;;;;;;3.80;78.19;99726.72;104503;1293;67754;-56
2023/11/30 12:33:01;;;;;;;;;;;;;;;4.25;78.27;99725.17;104539;1292;71252;-57
2023/11/30 12:35:47;;;;;;;;;;;;;;;3.71;76.78;99723.52;104578;1294;63139;-56
2023/11/30 12:38:34;;;;;;;11.20;7.80;;;;;;;3.01;78.20;99728.05;104530;1293;61143;-56
2023/11/30 12:41:20;;;;;;;28.50;13.60;;;;;;;2.62;76.74;99728.55;104434;1293;73227;-55
2023/11/30 12:44:07;;;;;;;19.20;10.60;;;;;;;2.33;78.74;99730.19;104505;1294;71320;-56
2023/11/30 12:46:53;;;;;;;15.70;9.30;;;;;;;2.26;79.30;99729.15;104505;1296;73060;-54
2023/11/30 12:49:39;;;;;;;10.60;7.90;;;;;;;2.00;78.18;99726.18;104491;1294;61542;-56
2023/11/30 12:52:26;;;;;;;8.00;7.10;;;;;;;2.00;79.63;99726.69;104530;1293;59263;-56
2023/11/30 12:55:13;;;;;;;6.20;5.60;;;;;;;2.85;80.63;99726.86;104494;1294;72331;-56
2023/11/30 12:57:59;;;;;;;7.30;6.60;;;;;;;3.55;79.12;99718.96;104523;1296;67149;-56